Time;durP1;ratioP1;P1;durP2;ratioP2;P2;SDS_P1;SDS_P2;PMS_P1;PMS_P2;Temp;Humidity;BMP_temperature;BMP_pressure;BME280_temperature;BME280_humidity;BME280_pressure;Samples;Min_cycle;Max_cycle;Signal;HPM_P1;HPM_P2
2023/09/24 00:00:10;;;;;;;;;;;20.70;60.90;;;;;;10392438;28;19933;-51
2023/09/24 00:05:13;;;;;;;;;;;20.80;60.50;;;;;;10379541;28;19933;-53
2023/09/24 00:10:16;;;;;;;;;;;20.70;60.10;;;;;;10384894;28;20358;-55
2023/09/24 00:15:19;;;;;;;;;;;20.70;59.90;;;;;;10391186;28;34272;-52
2023/09/24 00:20:21;;;;;;;;;;;20.70;59.60;;;;;;10366152;28;20088;-49
2023/09/24 00:25:23;;;;;;;;;;;20.70;59.40;;;;;;10379988;28;20067;-50
2023/09/24 00:30:28;;;;;;;;;;;20.70;59.30;;;;;;10391493;28;20420;-52
2023/09/24 00:35:30;;;;;;;;;;;20.70;59.00;;;;;;10378066;28;20483;-53
2023/09/24 00:40:32;;;;;;;;;;;20.70;58.80;;;;;;10381455;28;19934;-52
2023/09/24 00:45:34;;;;;;;;;;;20.70;58.70;;;;;;10382072;28;20321;-52
2023/09/24 00:50:41;;;;;;;;;;;20.70;58.70;;;;;;10389480;28;19933;-53
2023/09/24 00:55:43;;;;;;;;;;;20.70;58.50;;;;;;10392337;28;20068;-51
2023/09/24 01:00:46;;;;;;;;;;;20.70;58.40;;;;;;10371816;28;20364;-53
2023/09/24 01:05:49;;;;;;;;;;;20.70;58.30;;;;;;10351835;28;20329;-50
2023/09/24 01:10:52;;;;;;;;;;;20.70;58.20;;;;;;10363204;28;19940;-46
2023/09/24 01:15:54;;;;;;;;;;;20.70;58.10;;;;;;10360323;28;20048;-53
2023/09/24 01:20:56;;;;;;;;;;;20.70;57.60;;;;;;10392172;28;19940;-51
2023/09/24 01:25:58;;;;;;;;;;;20.60;57.70;;;;;;10377970;28;19933;-53
2023/09/24 01:31:00;;;;;;;;;;;20.60;57.70;;;;;;10378946;28;19940;-52
2023/09/24 01:36:02;;;;;;;;;;;20.60;57.50;;;;;;10375194;28;19933;-54
2023/09/24 01:41:05;;;;;;;;;;;20.60;57.50;;;;;;10376023;28;19940;-52
2023/09/24 01:46:07;;;;;;;;;;;20.60;57.70;;;;;;10361646;28;19937;-52
2023/09/24 01:51:12;;;;;;;;;;;20.60;57.50;;;;;;10385415;28;19940;-53
2023/09/24 01:56:17;;;;;;;;;;;20.60;57.40;;;;;;10390118;28;20436;-52
2023/09/24 02:01:19;;;;;;;;;;;20.60;57.10;;;;;;10376171;28;19933;-52
2023/09/24 02:06:21;;;;;;;;;;;20.60;57.20;;;;;;10395162;28;20083;-52
2023/09/24 02:11:23;;;;;;;;;;;20.60;57.10;;;;;;10391124;28;19933;-51
2023/09/24 02:16:27;;;;;;;;;;;20.50;56.80;;;;;;10407533;28;19933;-52
2023/09/24 02:21:30;;;;;;;;;;;20.50;57.00;;;;;;10402467;28;19933;-52
2023/09/24 02:26:32;;;;;;;;;;;20.50;56.80;;;;;;10402713;28;19941;-50
2023/09/24 02:31:34;;;;;;;;;;;20.50;56.70;;;;;;10408220;28;19933;-52
2023/09/24 02:36:37;;;;;;;;;;;20.50;56.60;;;;;;10389329;28;20326;-52
2023/09/24 02:41:40;;;;;;;;;;;20.50;56.60;;;;;;10388987;28;19933;-52
2023/09/24 02:46:42;;;;;;;;;;;20.50;56.60;;;;;;10396583;28;19978;-52
2023/09/24 02:51:44;;;;;;;;;;;20.50;56.70;;;;;;10388297;28;20050;-52
2023/09/24 02:56:46;;;;;;;;;;;20.50;56.60;;;;;;10380931;28;19934;-52
2023/09/24 03:01:47;;;;;;;;;;;20.50;56.70;;;;;;10380747;28;20093;-51
2023/09/24 03:06:49;;;;;;;;;;;20.40;56.70;;;;;;10389978;28;19980;-52
2023/09/24 03:11:51;;;;;;;;;;;20.50;56.70;;;;;;10400934;28;19988;-51
2023/09/24 03:16:54;;;;;;;;;;;20.50;56.60;;;;;;10399706;28;19934;-57
2023/09/24 03:21:56;;;;;;;;;;;20.50;56.60;;;;;;10367325;28;19934;-53
2023/09/24 03:26:58;;;;;;;;;;;20.50;56.60;;;;;;10402819;28;20460;-54
2023/09/24 03:31:59;;;;;;;;;;;20.50;56.40;;;;;;10368599;28;19969;-52
2023/09/24 03:37:01;;;;;;;;;;;20.50;56.50;;;;;;10373504;28;19934;-50
2023/09/24 03:42:04;;;;;;;;;;;20.50;56.40;;;;;;10369008;28;19934;-49
2023/09/24 03:47:06;;;;;;;;;;;20.40;56.40;;;;;;10389996;28;21250;-53
2023/09/24 03:52:10;;;;;;;;;;;20.50;56.40;;;;;;10383201;28;19934;-54
2023/09/24 03:57:11;;;;;;;;;;;20.50;56.40;;;;;;10379895;28;19933;-51
2023/09/24 04:02:14;;;;;;;;;;;20.50;56.20;;;;;;10382812;28;20341;-47
2023/09/24 04:07:17;;;;;;;;;;;20.50;56.20;;;;;;10393729;28;19981;-48
2023/09/24 04:12:18;;;;;;;;;;;20.50;56.20;;;;;;10377470;28;20316;-50
2023/09/24 04:17:20;;;;;;;;;;;20.50;56.20;;;;;;10384896;28;19941;-52
2023/09/24 04:22:22;;;;;;;;;;;20.50;56.10;;;;;;10367273;28;19933;-50
2023/09/24 04:27:25;;;;;;;;;;;20.50;55.70;;;;;;10381186;28;20057;-52
2023/09/24 04:32:27;;;;;;;;;;;20.50;55.60;;;;;;10388758;28;20031;-53
2023/09/24 04:37:29;;;;;;;;;;;20.50;55.70;;;;;;10370321;28;20020;-53
2023/09/24 04:42:31;;;;;;;;;;;20.50;55.50;;;;;;10357938;28;19933;-49
2023/09/24 04:47:34;;;;;;;;;;;20.50;55.50;;;;;;10810020;22;19933;-53
2023/09/24 04:52:38;;;;;;;;;;;20.50;55.40;;;;;;10330777;28;20088;-55
2023/09/24 04:57:40;;;;;;;;;;;20.50;55.30;;;;;;10349636;28;19934;-55
2023/09/24 05:02:42;;;;;;;;;;;20.50;55.30;;;;;;10348062;28;19934;-54
2023/09/24 05:07:45;;;;;;;;;;;20.50;55.10;;;;;;10331671;28;19934;-55
2023/09/24 05:12:47;;;;;;;;;;;20.50;55.00;;;;;;10341689;28;20271;-54
2023/09/24 05:17:49;;;;;;;;;;;20.40;54.90;;;;;;10344506;28;20328;-54
2023/09/24 05:22:51;;;;;;;;;;;20.40;54.80;;;;;;10354168;28;19933;-52
2023/09/24 05:27:52;;;;;;;;;;;20.40;54.80;;;;;;10337287;28;20692;-54
2023/09/24 05:32:54;;;;;;;;;;;20.40;54.70;;;;;;10349675;28;19933;-55
2023/09/24 05:37:56;;;;;;;;;;;20.40;54.80;;;;;;10334875;28;19934;-55
2023/09/24 05:42:58;;;;;;;;;;;20.40;54.80;;;;;;10336497;28;19940;-54
2023/09/24 05:47:59;;;;;;;;;;;20.40;54.70;;;;;;10341239;28;20308;-52
2023/09/24 05:53:01;;;;;;;;;;;20.40;54.70;;;;;;10326674;28;20041;-55
2023/09/24 05:58:04;;;;;;;;;;;20.40;54.60;;;;;;10333199;28;19940;-55
2023/09/24 06:03:06;;;;;;;;;;;20.40;54.70;;;;;;10332137;28;19933;-57
2023/09/24 06:08:08;;;;;;;;;;;20.40;54.60;;;;;;10349588;28;19941;-55
2023/09/24 06:13:15;;;;;;;;;;;20.40;54.70;;;;;;10352106;28;20352;-55
2023/09/24 06:18:18;;;;;;;;;;;20.40;54.80;;;;;;10336020;28;19941;-55
2023/09/24 06:23:20;;;;;;;;;;;20.30;54.60;;;;;;10336420;28;19941;-54
2023/09/24 06:28:25;;;;;;;;;;;20.40;54.60;;;;;;10352312;28;19972;-58
2023/09/24 06:33:27;;;;;;;;;;;20.30;54.60;;;;;;10326527;28;20118;-53
2023/09/24 06:38:29;;;;;;;;;;;20.40;54.60;;;;;;10339295;28;20327;-54
2023/09/24 06:43:31;;;;;;;;;;;20.40;54.70;;;;;;10345825;28;20377;-54
2023/09/24 06:48:33;;;;;;;;;;;20.30;54.60;;;;;;10327556;28;20024;-55
2023/09/24 06:53:36;;;;;;;;;;;20.30;54.80;;;;;;10351518;28;20124;-54
2023/09/24 06:58:39;;;;;;;;;;;20.30;54.90;;;;;;10345316;28;20028;-54
2023/09/24 07:03:41;;;;;;;;;;;20.40;55.00;;;;;;10345271;28;19934;-52
2023/09/24 07:08:43;;;;;;;;;;;20.40;55.00;;;;;;10331170;28;20020;-50
2023/09/24 07:13:46;;;;;;;;;;;20.40;55.00;;;;;;10352803;28;20063;-50
2023/09/24 07:18:50;;;;;;;;;;;20.40;55.60;;;;;;10360043;28;20697;-49
2023/09/24 07:23:56;;;;;;;;;;;20.40;55.80;;;;;;10357137;28;19942;-51
2023/09/24 07:28:59;;;;;;;;;;;20.40;56.70;;;;;;10337028;28;19941;-53
2023/09/24 07:34:01;;;;;;;;;;;20.40;56.70;;;;;;10340015;28;19934;-47
2023/09/24 07:39:04;;;;;;;;;;;20.40;56.70;;;;;;10340767;28;19990;-51
2023/09/24 07:44:06;;;;;;;;;;;20.40;57.60;;;;;;10341176;28;19934;-52
2023/09/24 07:49:09;;;;;;;;;;;20.40;57.20;;;;;;10360835;28;19933;-53
2023/09/24 07:54:11;;;;;;;;;;;20.40;57.00;;;;;;10339948;28;19933;-49
2023/09/24 07:59:13;;;;;;;;;;;20.40;56.60;;;;;;10345888;28;19934;-52
2023/09/24 08:04:16;;;;;;;;;;;20.40;56.70;;;;;;10350795;28;20370;-50
2023/09/24 08:09:18;;;;;;;;;;;20.40;56.60;;;;;;10352823;28;20012;-49
2023/09/24 08:14:28;;;;;;;;;;;20.40;56.20;;;;;;10337887;28;20773;-50
2023/09/24 08:19:30;;;;;;;;;;;20.40;56.40;;;;;;10341165;28;19941;-51
2023/09/24 08:24:32;;;;;;;;;;;20.40;56.20;;;;;;10346723;28;20389;-52
2023/09/24 08:29:34;;;;;;;;;;;20.40;56.00;;;;;;10330091;28;19934;-51
2023/09/24 08:34:36;;;;;;;;;;;20.40;56.20;;;;;;10337229;28;20314;-48
2023/09/24 08:39:38;;;;;;;;;;;20.50;56.20;;;;;;10338148;28;20061;-50
2023/09/24 08:44:40;;;;;;;;;;;20.50;56.20;;;;;;10355806;28;19938;-51
2023/09/24 08:49:43;;;;;;;;;;;20.50;56.20;;;;;;10327871;28;19933;-49
2023/09/24 08:54:45;;;;;;;;;;;20.50;56.00;;;;;;10342037;28;21119;-48
2023/09/24 08:59:48;;;;;;;;;;;20.50;56.00;;;;;;10365937;28;19964;-53
2023/09/24 09:04:50;;;;;;;;;;;20.50;55.90;;;;;;10350265;28;20016;-50
2023/09/24 09:09:56;;;;;;;;;;;20.60;55.80;;;;;;10339510;28;19934;-50
2023/09/24 09:14:58;;;;;;;;;;;20.60;55.80;;;;;;10336897;28;19933;-54
2023/09/24 09:20:00;;;;;;;;;;;20.60;55.70;;;;;;10337881;28;20359;-51
2023/09/24 09:25:04;;;;;;;;;;;20.70;55.90;;;;;;10348246;28;20472;-58
2023/09/24 09:30:17;;;;;;;;;;;20.70;55.90;;;;;;10338543;28;20113;-52
2023/09/24 09:35:19;;;;;;;;;;;20.70;55.70;;;;;;10359169;28;19941;-53
2023/09/24 09:40:21;;;;;;;;;;;20.80;56.10;;;;;;10352665;28;19934;-52
2023/09/24 09:45:23;;;;;;;;;;;20.90;55.90;;;;;;10328292;28;19934;-51
2023/09/24 09:50:25;;;;;;;;;;;20.90;55.80;;;;;;10334197;28;20020;-50
2023/09/24 09:55:27;;;;;;;;;;;21.00;55.70;;;;;;10336750;28;19934;-53
2023/09/24 10:00:29;;;;;;;;;;;21.00;55.50;;;;;;10334262;28;19934;-51
2023/09/24 10:05:31;;;;;;;;;;;21.10;55.30;;;;;;10343211;28;19941;-50
2023/09/24 10:10:32;;;;;;;;;;;21.10;55.10;;;;;;10344321;28;19941;-51
2023/09/24 10:15:34;;;;;;;;;;;21.20;55.10;;;;;;10337448;28;20393;-51
2023/09/24 10:20:48;;;;;;;;;;;21.20;54.90;;;;;;10345566;28;19933;-50
2023/09/24 10:25:50;;;;;;;;;;;21.30;54.90;;;;;;10331822;28;19942;-53
2023/09/24 10:31:01;;;;;;;;;;;21.30;54.80;;;;;;10333516;28;19934;-52
2023/09/24 10:36:24;;;;;;;;;;;21.30;54.70;;;;;;10338820;28;19937;-52
2023/09/24 10:41:25;;;;;;;;;;;21.40;54.70;;;;;;10343601;28;19941;-51
2023/09/24 10:46:30;;;;;;;;;;;21.30;54.70;;;;;;10322242;28;19934;-51
2023/09/24 10:51:32;;;;;;;;;;;21.40;54.70;;;;;;10356932;28;19934;-53
2023/09/24 10:56:33;;;;;;;;;;;21.40;54.60;;;;;;10351606;28;19940;-52
2023/09/24 11:01:35;;;;;;;;;;;21.40;55.10;;;;;;10352536;28;20731;-52
2023/09/24 11:06:37;;;;;;;;;;;21.40;55.20;;;;;;10353360;28;19933;-50
2023/09/24 11:11:39;;;;;;;;;;;21.40;56.80;;;;;;10344109;28;20374;-52
2023/09/24 11:16:41;;;;;;;;;;;21.50;59.80;;;;;;10343620;28;20024;-54
2023/09/24 11:21:42;;;;;;;;;;;21.50;59.10;;;;;;10343768;28;20073;-52
2023/09/24 11:26:44;;;;;;;;;;;21.50;58.40;;;;;;10324856;28;19941;-50
2023/09/24 11:31:47;;;;;;;;;;;21.50;58.60;;;;;;10322371;28;19940;-51
2023/09/24 11:36:53;;;;;;;;;;;21.50;58.90;;;;;;10363275;28;19941;-50
2023/09/24 11:41:56;;;;;;;;;;;21.40;59.10;;;;;;10332124;28;19934;-51
2023/09/24 11:46:58;;;;;;;;;;;21.40;59.40;;;;;;10340236;28;20031;-52
2023/09/24 11:52:06;;;;;;;;;;;21.40;59.80;;;;;;10339004;28;19934;-52
2023/09/24 11:57:09;;;;;;;;;;;21.40;60.00;;;;;;10361063;28;19934;-53
2023/09/24 12:02:11;;;;;;;;;;;21.40;60.30;;;;;;10345865;28;20114;-52
2023/09/24 12:07:13;;;;;;;;;;;21.30;60.00;;;;;;10348239;28;20716;-48
2023/09/24 12:12:15;;;;;;;;;;;21.30;59.80;;;;;;10329682;28;19934;-47
2023/09/24 12:17:19;;;;;;;;;;;21.30;59.80;;;;;;10355832;28;20446;-52
2023/09/24 12:22:22;;;;;;;;;;;21.20;59.90;;;;;;10343741;28;19933;-46
2023/09/24 12:27:26;;;;;;;;;;;21.20;59.90;;;;;;10356358;28;19934;-49
2023/09/24 12:32:28;;;;;;;;;;;21.20;60.00;;;;;;10373332;28;19933;-48
2023/09/24 12:37:32;;;;;;;;;;;21.20;60.10;;;;;;10338211;28;20023;-47
2023/09/24 12:42:34;;;;;;;;;;;21.20;60.20;;;;;;10346612;28;19933;-45
2023/09/24 12:47:36;;;;;;;;;;;21.20;60.20;;;;;;10345321;28;19941;-48
2023/09/24 12:52:42;;;;;;;;;;;21.20;60.10;;;;;;10349869;28;19938;-46
2023/09/24 12:57:44;;;;;;;;;;;21.20;60.30;;;;;;10347949;28;20672;-46
2023/09/24 13:02:47;;;;;;;;;;;21.20;60.30;;;;;;10349451;28;19933;-50
2023/09/24 13:07:49;;;;;;;;;;;21.30;60.30;;;;;;10352165;28;19985;-47
2023/09/24 13:12:51;;;;;;;;;;;21.30;60.60;;;;;;10337554;28;19934;-50
2023/09/24 13:17:53;;;;;;;;;;;21.40;60.90;;;;;;10341482;28;19934;-51
2023/09/24 13:22:55;;;;;;;;;;;21.40;61.10;;;;;;10336110;28;19933;-51
2023/09/24 13:27:56;;;;;;;;;;;21.40;60.90;;;;;;10336716;28;19934;-49
2023/09/24 13:32:58;;;;;;;;;;;21.40;60.40;;;;;;10337972;28;19945;-51
2023/09/24 13:38:00;;;;;;;;;;;21.40;60.40;;;;;;10331297;28;19956;-50
2023/09/24 13:43:02;;;;;;;;;;;21.40;60.40;;;;;;10339023;28;21090;-50
2023/09/24 13:48:03;;;;;;;;;;;21.40;60.30;;;;;;10342888;28;20468;-48
2023/09/24 13:53:08;;;;;;;;;;;21.40;60.40;;;;;;10342276;28;20753;-50
2023/09/24 13:58:11;;;;;;;;;;;21.40;60.30;;;;;;10336068;28;20882;-50
2023/09/24 14:03:12;;;;;;;;;;;21.40;60.20;;;;;;10344221;28;20337;-47
2023/09/24 14:13:35;;;;;;;;;;;21.40;60.20;;;;;;10345068;28;20389;-51
2023/09/24 14:18:37;;;;;;;;;;;21.30;60.20;;;;;;10346624;28;19933;-49
2023/09/24 14:23:40;;;;;;;;;;;21.40;60.20;;;;;;10341696;28;20448;-52
2023/09/24 14:28:41;;;;;;;;;;;21.40;60.30;;;;;;10339584;28;19934;-52
2023/09/24 14:33:43;;;;;;;;;;;21.30;60.20;;;;;;10334002;28;19934;-49
2023/09/24 14:38:46;;;;;;;;;;;21.40;60.20;;;;;;10327508;28;19934;-49
2023/09/24 14:43:48;;;;;;;;;;;21.40;60.10;;;;;;10347689;28;19940;-48
2023/09/24 14:48:51;;;;;;;;;;;21.30;60.60;;;;;;10344573;28;20286;-47
2023/09/24 14:53:58;;;;;;;;;;;21.40;61.00;;;;;;10329945;28;19934;-48
2023/09/24 14:59:01;;;;;;;;;;;21.40;61.20;;;;;;10332496;28;19934;-53
2023/09/24 15:04:02;;;;;;;;;;;21.50;61.30;;;;;;10339924;28;20321;-69
2023/09/24 15:09:04;;;;;;;;;;;21.50;61.30;;;;;;10339420;28;19934;-51
2023/09/24 15:14:07;;;;;;;;;;;21.60;63.90;;;;;;10337501;28;20020;-52
2023/09/24 15:19:09;;;;;;;;;;;21.70;63.40;;;;;;10332843;28;19934;-50
2023/09/24 15:24:12;;;;;;;;;;;21.90;62.90;;;;;;10333586;28;19934;-53
2023/09/24 15:29:15;;;;;;;;;;;22.00;64.90;;;;;;10338334;28;19956;-54
2023/09/24 15:34:17;;;;;;;;;;;22.20;64.30;;;;;;10334938;28;19942;-49
2023/09/24 15:39:19;;;;;;;;;;;22.50;62.30;;;;;;10346536;28;19934;-46
2023/09/24 15:44:21;;;;;;;;;;;22.60;62.90;;;;;;10335807;28;19965;-51
2023/09/24 15:49:22;;;;;;;;;;;22.70;60.00;;;;;;10328604;28;19941;-51
2023/09/24 15:54:24;;;;;;;;;;;22.70;59.60;;;;;;10351993;28;19941;-48
2023/09/24 15:59:26;;;;;;;;;;;22.80;61.90;;;;;;10339232;28;19940;-51
2023/09/24 16:04:27;;;;;;;;;;;22.80;58.70;;;;;;10342557;28;20412;-50
2023/09/24 16:09:29;;;;;;;;;;;22.90;61.20;;;;;;10324922;28;20515;-51
2023/09/24 16:14:31;;;;;;;;;;;23.00;58.20;;;;;;10350127;28;19942;-51
2023/09/24 16:19:33;;;;;;;;;;;23.00;57.30;;;;;;10347766;28;19934;-51
2023/09/24 16:24:34;;;;;;;;;;;22.90;57.60;;;;;;10357582;28;19940;-52
2023/09/24 16:29:36;;;;;;;;;;;22.90;57.30;;;;;;10347767;28;19934;-49
2023/09/24 16:34:39;;;;;;;;;;;22.80;57.60;;;;;;10346232;28;19981;-53
2023/09/24 16:39:41;;;;;;;;;;;22.70;57.70;;;;;;10335658;28;19948;-51
2023/09/24 16:44:42;;;;;;;;;;;22.60;57.90;;;;;;10354751;28;19935;-47
2023/09/24 16:49:44;;;;;;;;;;;22.60;59.10;;;;;;10343877;28;19934;-53
2023/09/24 16:54:47;;;;;;;;;;;22.60;58.20;;;;;;10349115;28;19933;-51
2023/09/24 16:59:49;;;;;;;;;;;22.50;58.30;;;;;;10347052;28;19934;-51
2023/09/24 17:04:50;;;;;;;;;;;22.50;58.40;;;;;;10342806;28;20028;-52
2023/09/24 17:09:52;;;;;;;;;;;22.50;58.40;;;;;;10329703;28;19940;-51
2023/09/24 17:14:54;;;;;;;;;;;22.40;58.10;;;;;;10351762;28;20062;-50
2023/09/24 17:19:56;;;;;;;;;;;22.40;58.20;;;;;;10345370;28;19933;-50
2023/09/24 17:24:58;;;;;;;;;;;22.40;58.10;;;;;;10340957;28;20389;-52
2023/09/24 17:30:04;;;;;;;;;;;22.30;58.10;;;;;;10339679;28;19934;-50
2023/09/24 17:35:06;;;;;;;;;;;22.30;58.00;;;;;;10342620;28;20118;-50
2023/09/24 17:40:10;;;;;;;;;;;22.30;57.90;;;;;;10334793;28;19934;-51
2023/09/24 17:45:12;;;;;;;;;;;22.30;57.90;;;;;;10351742;28;20028;-50
2023/09/24 17:50:14;;;;;;;;;;;22.20;57.70;;;;;;10329124;28;19940;-50
2023/09/24 17:55:17;;;;;;;;;;;22.20;57.60;;;;;;10360231;28;19985;-48
2023/09/24 18:00:19;;;;;;;;;;;22.10;57.40;;;;;;10365932;28;19933;-49
2023/09/24 18:05:20;;;;;;;;;;;22.10;57.50;;;;;;10338502;28;19941;-50
2023/09/24 18:10:22;;;;;;;;;;;22.10;57.50;;;;;;10324678;28;19941;-52
2023/09/24 18:15:26;;;;;;;;;;;22.10;57.50;;;;;;10322888;28;19941;-47
2023/09/24 18:20:28;;;;;;;;;;;22.00;57.40;;;;;;10340710;28;20321;-47
2023/09/24 18:25:30;;;;;;;;;;;22.00;57.30;;;;;;10329427;28;19945;-52
2023/09/24 18:30:36;;;;;;;;;;;21.90;57.60;;;;;;10342339;28;19940;-50
2023/09/24 18:35:39;;;;;;;;;;;21.90;57.20;;;;;;10345054;28;19940;-51
2023/09/24 18:40:41;;;;;;;;;;;21.90;57.30;;;;;;10338138;28;19940;-52
2023/09/24 18:45:48;;;;;;;;;;;21.90;57.10;;;;;;10338595;28;20409;-56
2023/09/24 18:50:50;;;;;;;;;;;21.80;56.90;;;;;;10345873;28;19944;-49
2023/09/24 18:55:59;;;;;;;;;;;21.80;56.90;;;;;;10335688;28;20830;-51
2023/09/24 19:01:07;;;;;;;;;;;21.80;57.00;;;;;;10342406;28;19981;-47
2023/09/24 19:06:09;;;;;;;;;;;21.80;56.90;;;;;;10342290;28;19940;-51
2023/09/24 19:11:11;;;;;;;;;;;21.80;57.10;;;;;;10340786;28;19941;-50
2023/09/24 19:16:13;;;;;;;;;;;21.70;56.80;;;;;;10341872;28;19934;-47
2023/09/24 19:21:14;;;;;;;;;;;21.70;57.10;;;;;;10335952;28;20324;-50
2023/09/24 19:26:17;;;;;;;;;;;21.70;56.90;;;;;;10354241;28;19940;-50
2023/09/24 19:31:19;;;;;;;;;;;21.70;56.90;;;;;;10349596;28;20090;-52
2023/09/24 19:36:21;;;;;;;;;;;21.70;56.80;;;;;;10342999;28;20072;-50
2023/09/24 19:41:23;;;;;;;;;;;21.60;57.60;;;;;;10338370;28;20403;-51
2023/09/24 19:46:24;;;;;;;;;;;21.60;56.70;;;;;;10346353;28;19934;-51
2023/09/24 19:51:26;;;;;;;;;;;21.60;56.60;;;;;;10340317;28;20038;-49
2023/09/24 19:56:28;;;;;;;;;;;21.60;56.70;;;;;;10341213;28;20019;-52
2023/09/24 20:01:30;;;;;;;;;;;21.60;56.60;;;;;;10348001;28;20467;-47
2023/09/24 20:06:32;;;;;;;;;;;21.60;56.70;;;;;;10324959;28;19933;-49
2023/09/24 20:11:35;;;;;;;;;;;21.50;56.40;;;;;;10331097;28;19934;-53
2023/09/24 20:16:38;;;;;;;;;;;21.50;56.30;;;;;;10347230;28;20005;-52
2023/09/24 20:21:40;;;;;;;;;;;21.50;56.20;;;;;;10336267;28;19933;-52
2023/09/24 20:26:43;;;;;;;;;;;21.50;56.40;;;;;;10338766;28;19965;-52
2023/09/24 20:31:47;;;;;;;;;;;21.50;56.50;;;;;;10329652;28;19934;-51
2023/09/24 20:36:49;;;;;;;;;;;21.50;56.50;;;;;;10371313;28;19941;-50
2023/09/24 20:41:53;;;;;;;;;;;21.40;56.30;;;;;;10356912;28;19941;-51
2023/09/24 20:46:55;;;;;;;;;;;21.40;56.30;;;;;;10364061;28;20052;-48
2023/09/24 20:51:57;;;;;;;;;;;21.40;56.20;;;;;;10352984;28;19987;-48
2023/09/24 20:56:59;;;;;;;;;;;21.40;56.20;;;;;;10341039;28;19933;-47
2023/09/24 21:02:00;;;;;;;;;;;21.40;56.00;;;;;;10346542;28;20937;-51
2023/09/24 21:07:05;;;;;;;;;;;21.40;55.90;;;;;;10341261;28;20057;-53
2023/09/24 21:12:07;;;;;;;;;;;21.40;56.00;;;;;;10346829;28;20038;-50
2023/09/24 21:17:09;;;;;;;;;;;21.40;55.90;;;;;;10338245;28;19933;-52
2023/09/24 21:22:11;;;;;;;;;;;21.40;55.50;;;;;;10350859;28;19934;-51
2023/09/24 21:27:13;;;;;;;;;;;21.40;55.50;;;;;;10318370;28;20210;-51
2023/09/24 21:32:18;;;;;;;;;;;21.40;55.50;;;;;;10345116;28;19941;-49
2023/09/24 21:37:20;;;;;;;;;;;21.40;55.30;;;;;;10337104;28;19934;-48
2023/09/24 21:42:22;;;;;;;;;;;21.40;55.20;;;;;;10359641;28;20530;-51
2023/09/24 21:47:24;;;;;;;;;;;21.40;55.10;;;;;;10335966;28;19934;-51
2023/09/24 21:52:26;;;;;;;;;;;21.40;55.10;;;;;;10331192;28;19934;-51
2023/09/24 21:57:27;;;;;;;;;;;21.40;56.00;;;;;;10350867;28;20024;-51
2023/09/24 22:02:29;;;;;;;;;;;21.40;54.90;;;;;;10336989;28;20411;-53
2023/09/24 22:07:31;;;;;;;;;;;21.40;54.80;;;;;;10338839;28;19934;-53
2023/09/24 22:12:33;;;;;;;;;;;21.40;54.80;;;;;;10314374;28;20851;-52
2023/09/24 22:17:35;;;;;;;;;;;21.50;54.80;;;;;;10323596;28;19941;-51
2023/09/24 22:22:38;;;;;;;;;;;21.40;54.50;;;;;;10348821;28;20031;-53
2023/09/24 22:27:43;;;;;;;;;;;21.40;54.60;;;;;;10342875;28;19933;-53
2023/09/24 22:32:44;;;;;;;;;;;21.40;55.50;;;;;;10341048;28;19941;-52
2023/09/24 22:37:47;;;;;;;;;;;21.40;54.40;;;;;;10326318;28;19934;-52
2023/09/24 22:42:49;;;;;;;;;;;21.40;54.30;;;;;;10349086;28;19934;-52
2023/09/24 22:47:51;;;;;;;;;;;21.40;54.30;;;;;;10333080;28;19941;-50
2023/09/24 22:52:53;;;;;;;;;;;21.40;54.30;;;;;;10344430;28;20036;-53
2023/09/24 22:57:54;;;;;;;;;;;21.40;54.20;;;;;;10338521;28;20797;-49
2023/09/24 23:02:56;;;;;;;;;;;21.40;54.20;;;;;;10352041;28;20197;-49
2023/09/24 23:07:58;;;;;;;;;;;21.40;54.10;;;;;;10331439;28;20305;-52
2023/09/24 23:13:00;;;;;;;;;;;21.40;54.20;;;;;;10331961;28;19960;-50
2023/09/24 23:18:02;;;;;;;;;;;21.30;54.30;;;;;;10338919;28;19941;-47
2023/09/24 23:23:04;;;;;;;;;;;21.30;54.30;;;;;;10356074;28;19957;-47
2023/09/24 23:28:06;;;;;;;;;;;21.30;54.50;;;;;;10353331;28;20111;-50
2023/09/24 23:33:10;;;;;;;;;;;21.30;54.50;;;;;;10363074;28;19934;-51
2023/09/24 23:38:12;;;;;;;;;;;21.30;54.50;;;;;;10359957;28;19941;-51
2023/09/24 23:43:15;;;;;;;;;;;21.30;54.40;;;;;;10326756;28;20645;-49
2023/09/24 23:48:18;;;;;;;;;;;21.20;54.40;;;;;;10364061;28;19941;-51
2023/09/24 23:53:19;;;;;;;;;;;21.20;54.30;;;;;;10344855;28;20368;-52
2023/09/24 23:58:25;;;;;;;;;;;21.20;54.40;;;;;;10349825;28;20613;-49
